sensor_id;sensor_type;location;lat;lon;timestamp;pressure;altitude;pressure_sealevel;temperature;humidity
28008;BME280;15333;50.010;20.020;2023-02-12T00:02:53;99979.81;;;2.92;100.00
28008;BME280;15333;50.010;20.020;2023-02-12T00:05:59;99978.91;;;2.93;100.00
28008;BME280;15333;50.010;20.020;2023-02-12T00:09:00;99983.34;;;2.92;100.00
28008;BME280;15333;50.010;20.020;2023-02-12T00:12:01;99979.81;;;2.92;100.00
28008;BME280;15333;50.010;20.020;2023-02-12T00:15:03;99977.16;;;2.93;100.00
28008;BME280;15333;50.010;20.020;2023-02-12T00:18:04;99984.22;;;2.93;100.00
28008;BME280;15333;50.010;20.020;2023-02-12T00:21:05;99988.53;;;2.97;100.00
28008;BME280;15333;50.010;20.020;2023-02-12T00:24:08;99996.38;;;3.00;100.00
28008;BME280;15333;50.010;20.020;2023-02-12T00:27:09;99987.72;;;2.93;100.00
28008;BME280;15333;50.010;20.020;2023-02-12T00:30:10;99982.41;;;2.95;100.00
28008;BME280;15333;50.010;20.020;2023-02-12T00:33:11;99987.69;;;2.95;100.00
28008;BME280;15333;50.010;20.020;2023-02-12T00:36:15;99993.78;;;2.98;100.00
28008;BME280;15333;50.010;20.020;2023-02-12T00:39:16;99992.84;;;2.99;100.00
28008;BME280;15333;50.010;20.020;2023-02-12T00:42:17;99994.63;;;2.99;100.00
28008;BME280;15333;50.010;20.020;2023-02-12T00:45:19;99989.59;;;2.90;100.00
28008;BME280;15333;50.010;20.020;2023-02-12T00:48:20;99996.69;;;2.88;100.00
28008;BME280;15333;50.010;20.020;2023-02-12T00:51:22;100006.22;;;2.93;100.00
28008;BME280;15333;50.010;20.020;2023-02-12T00:54:23;99996.53;;;2.94;100.00
28008;BME280;15333;50.010;20.020;2023-02-12T00:57:24;100009.72;;;2.95;100.00
28008;BME280;15333;50.010;20.020;2023-02-12T01:00:25;100005.19;;;2.99;100.00
28008;BME280;15333;50.010;20.020;2023-02-12T01:03:26;100003.44;;;2.99;100.00
28008;BME280;15333;50.010;20.020;2023-02-12T01:06:27;100005.13;;;3.02;100.00
28008;BME280;15333;50.010;20.020;2023-02-12T01:09:28;100004.97;;;3.08;100.00
28008;BME280;15333;50.010;20.020;2023-02-12T01:12:29;100013.81;;;3.07;100.00
28008;BME280;15333;50.010;20.020;2023-02-12T01:15:30;100018.13;;;3.11;100.00
28008;BME280;15333;50.010;20.020;2023-02-12T01:18:31;100008.59;;;3.05;100.00
28008;BME280;15333;50.010;20.020;2023-02-12T01:21:33;100015.50;;;3.09;100.00
28008;BME280;15333;50.010;20.020;2023-02-12T01:24:35;100013.75;;;3.10;100.00
28008;BME280;15333;50.010;20.020;2023-02-12T01:27:35;100016.44;;;3.07;100.00
28008;BME280;15333;50.010;20.020;2023-02-12T01:30:37;100024.34;;;3.08;100.00
28008;BME280;15333;50.010;20.020;2023-02-12T01:33:39;100018.19;;;3.08;100.00
28008;BME280;15333;50.010;20.020;2023-02-12T01:36:40;100026.06;;;3.11;100.00
28008;BME280;15333;50.010;20.020;2023-02-12T01:39:41;100036.66;;;3.11;100.00
28008;BME280;15333;50.010;20.020;2023-02-12T01:42:42;100040.06;;;3.14;100.00
28008;BME280;15333;50.010;20.020;2023-02-12T01:45:46;100035.75;;;3.12;100.00
28008;BME280;15333;50.010;20.020;2023-02-12T01:48:48;100030.47;;;3.10;100.00
28008;BME280;15333;50.010;20.020;2023-02-12T01:51:58;100038.47;;;3.07;100.00
28008;BME280;15333;50.010;20.020;2023-02-12T01:55:03;100035.81;;;3.09;100.00
28008;BME280;15333;50.010;20.020;2023-02-12T01:58:05;100043.75;;;3.09;100.00
28008;BME280;15333;50.010;20.020;2023-02-12T02:01:11;100048.19;;;3.07;100.00
28008;BME280;15333;50.010;20.020;2023-02-12T02:04:16;100046.34;;;3.10;100.00
28008;BME280;15333;50.010;20.020;2023-02-12T02:07:19;100056.97;;;3.09;100.00
28008;BME280;15333;50.010;20.020;2023-02-12T02:10:19;100056.13;;;3.07;100.00
28008;BME280;15333;50.010;20.020;2023-02-12T02:13:21;100067.53;;;3.09;100.00
28008;BME280;15333;50.010;20.020;2023-02-12T02:16:43;100070.13;;;3.12;100.00
28008;BME280;15333;50.010;20.020;2023-02-12T02:29:45;100086.00;;;3.12;100.00
28008;BME280;15333;50.010;20.020;2023-02-12T02:32:54;100105.47;;;3.08;100.00
28008;BME280;15333;50.010;20.020;2023-02-12T02:36:07;100103.72;;;3.07;100.00
28008;BME280;15333;50.010;20.020;2023-02-12T02:39:49;100119.53;;;3.10;100.00
28008;BME280;15333;50.010;20.020;2023-02-12T02:46:04;100133.50;;;3.15;100.00
28008;BME280;15333;50.010;20.020;2023-02-12T02:49:10;100134.47;;;3.12;100.00
28008;BME280;15333;50.010;20.020;2023-02-12T02:52:19;100131.72;;;3.17;100.00
28008;BME280;15333;50.010;20.020;2023-02-12T02:55:24;100124.59;;;3.19;100.00
28008;BME280;15333;50.010;20.020;2023-02-12T02:58:34;100134.88;;;3.31;100.00
28008;BME280;15333;50.010;20.020;2023-02-12T03:01:43;100142.63;;;3.39;100.00
28008;BME280;15333;50.010;20.020;2023-02-12T03:04:51;100148.53;;;3.48;100.00
28008;BME280;15333;50.010;20.020;2023-02-12T03:07:58;100150.22;;;3.52;100.00
28008;BME280;15333;50.010;20.020;2023-02-12T03:11:08;100165.94;;;3.59;100.00
28008;BME280;15333;50.010;20.020;2023-02-12T03:14:24;100156.34;;;3.54;100.00
28008;BME280;15333;50.010;20.020;2023-02-12T03:17:31;100166.97;;;3.53;100.00
28008;BME280;15333;50.010;20.020;2023-02-12T03:20:44;100171.31;;;3.55;100.00
28008;BME280;15333;50.010;20.020;2023-02-12T03:24:25;100176.84;;;3.46;100.00
28008;BME280;15333;50.010;20.020;2023-02-12T03:27:30;100189.03;;;3.53;100.00
28008;BME280;15333;50.010;20.020;2023-02-12T03:30:48;100181.25;;;3.46;100.00
28008;BME280;15333;50.010;20.020;2023-02-12T03:36:58;100190.28;;;3.37;100.00
28008;BME280;15333;50.010;20.020;2023-02-12T03:46:48;100206.03;;;3.42;100.00
28008;BME280;15333;50.010;20.020;2023-02-12T03:50:18;100215.75;;;3.41;100.00
28008;BME280;15333;50.010;20.020;2023-02-12T03:53:21;100226.34;;;3.41;100.00
28008;BME280;15333;50.010;20.020;2023-02-12T03:57:03;100223.03;;;3.33;100.00
28008;BME280;15333;50.010;20.020;2023-02-12T04:00:09;100239.53;;;3.43;100.00
28008;BME280;15333;50.010;20.020;2023-02-12T04:03:16;100245.84;;;3.37;100.00
28008;BME280;15333;50.010;20.020;2023-02-12T04:06:20;100247.50;;;3.41;100.00
28008;BME280;15333;50.010;20.020;2023-02-12T04:09:23;100256.56;;;3.33;100.00
28008;BME280;15333;50.010;20.020;2023-02-12T04:12:45;100259.28;;;3.28;100.00
28008;BME280;15333;50.010;20.020;2023-02-12T04:18:54;100270.25;;;3.11;100.00
28008;BME280;15333;50.010;20.020;2023-02-12T04:22:35;100282.63;;;3.09;100.00
28008;BME280;15333;50.010;20.020;2023-02-12T04:32:05;100290.22;;;3.26;100.00
28008;BME280;15333;50.010;20.020;2023-02-12T04:38:47;100298.34;;;3.17;100.00
28008;BME280;15333;50.010;20.020;2023-02-12T04:41:51;100300.16;;;3.15;100.00
28008;BME280;15333;50.010;20.020;2023-02-12T04:44:52;100309.09;;;3.09;100.00
28008;BME280;15333;50.010;20.020;2023-02-12T04:47:53;100322.41;;;3.46;100.00
28008;BME280;15333;50.010;20.020;2023-02-12T04:50:54;100318.16;;;3.39;100.00
28008;BME280;15333;50.010;20.020;2023-02-12T04:53:55;100334.25;;;3.27;100.00
28008;BME280;15333;50.010;20.020;2023-02-12T04:56:56;100345.94;;;3.19;100.00
28008;BME280;15333;50.010;20.020;2023-02-12T04:59:57;100344.25;;;3.13;100.00
28008;BME280;15333;50.010;20.020;2023-02-12T05:02:58;100357.50;;;3.13;100.00
28008;BME280;15333;50.010;20.020;2023-02-12T05:06:07;100360.31;;;3.05;100.00
28008;BME280;15333;50.010;20.020;2023-02-12T05:09:12;100369.28;;;2.97;100.00
28008;BME280;15333;50.010;20.020;2023-02-12T05:12:13;100380.78;;;2.96;100.00
28008;BME280;15333;50.010;20.020;2023-02-12T05:15:14;100384.56;;;2.83;100.00
28008;BME280;15333;50.010;20.020;2023-02-12T05:18:15;100397.03;;;2.74;100.00
28008;BME280;15333;50.010;20.020;2023-02-12T05:21:16;100386.63;;;2.65;100.00
28008;BME280;15333;50.010;20.020;2023-02-12T05:24:17;100389.53;;;2.49;100.00
28008;BME280;15333;50.010;20.020;2023-02-12T05:27:18;100389.75;;;2.38;100.00
28008;BME280;15333;50.010;20.020;2023-02-12T05:30:19;100399.34;;;2.42;100.00
28008;BME280;15333;50.010;20.020;2023-02-12T05:33:20;100406.28;;;2.49;100.00
28008;BME280;15333;50.010;20.020;2023-02-12T05:36:22;100416.16;;;2.40;100.00
28008;BME280;15333;50.010;20.020;2023-02-12T05:39:23;100412.75;;;2.33;100.00
28008;BME280;15333;50.010;20.020;2023-02-12T05:42:24;100421.47;;;2.36;100.00
28008;BME280;15333;50.010;20.020;2023-02-12T05:45:25;100428.75;;;2.22;100.00
28008;BME280;15333;50.010;20.020;2023-02-12T05:48:28;100431.25;;;2.30;100.00
28008;BME280;15333;50.010;20.020;2023-02-12T05:51:29;100448.75;;;2.37;100.00
28008;BME280;15333;50.010;20.020;2023-02-12T05:54:31;100447.97;;;2.32;100.00
28008;BME280;15333;50.010;20.020;2023-02-12T05:57:32;100454.22;;;2.26;100.00
28008;BME280;15333;50.010;20.020;2023-02-12T06:00:33;100461.22;;;2.29;100.00
28008;BME280;15333;50.010;20.020;2023-02-12T06:03:34;100461.28;;;2.26;100.00
28008;BME280;15333;50.010;20.020;2023-02-12T06:06:35;100468.38;;;2.21;100.00
28008;BME280;15333;50.010;20.020;2023-02-12T06:09:36;100464.84;;;2.22;100.00
28008;BME280;15333;50.010;20.020;2023-02-12T06:12:37;100464.81;;;2.25;100.00
28008;BME280;15333;50.010;20.020;2023-02-12T06:15:38;100473.72;;;2.18;100.00
28008;BME280;15333;50.010;20.020;2023-02-12T06:18:39;100475.47;;;2.19;100.00
28008;BME280;15333;50.010;20.020;2023-02-12T06:21:40;100478.13;;;2.19;100.00
28008;BME280;15333;50.010;20.020;2023-02-12T06:24:41;100494.84;;;2.18;100.00
28008;BME280;15333;50.010;20.020;2023-02-12T06:27:42;100491.34;;;2.16;100.00
28008;BME280;15333;50.010;20.020;2023-02-12T06:30:43;100496.69;;;2.13;100.00
28008;BME280;15333;50.010;20.020;2023-02-12T06:33:44;100499.38;;;2.07;100.00
28008;BME280;15333;50.010;20.020;2023-02-12T06:36:46;100503.88;;;2.02;100.00
28008;BME280;15333;50.010;20.020;2023-02-12T06:39:47;100507.38;;;2.02;100.00
28008;BME280;15333;50.010;20.020;2023-02-12T06:42:48;100514.44;;;2.00;100.00
28008;BME280;15333;50.010;20.020;2023-02-12T06:45:49;100519.78;;;1.99;100.00
28008;BME280;15333;50.010;20.020;2023-02-12T06:48:54;100519.78;;;1.99;100.00
28008;BME280;15333;50.010;20.020;2023-02-12T06:51:55;100526.03;;;1.90;100.00
28008;BME280;15333;50.010;20.020;2023-02-12T06:54:56;100522.53;;;1.89;100.00
28008;BME280;15333;50.010;20.020;2023-02-12T06:57:57;100524.22;;;1.93;100.00
28008;BME280;15333;50.010;20.020;2023-02-12T07:01:15;100533.13;;;1.85;100.00
28008;BME280;15333;50.010;20.020;2023-02-12T07:04:17;100539.25;;;1.88;100.00
28008;BME280;15333;50.010;20.020;2023-02-12T07:07:18;100542.06;;;1.73;100.00
28008;BME280;15333;50.010;20.020;2023-02-12T07:10:19;100554.38;;;1.73;100.00
28008;BME280;15333;50.010;20.020;2023-02-12T07:13:20;100552.63;;;1.73;100.00
28008;BME280;15333;50.010;20.020;2023-02-12T07:16:21;100563.19;;;1.72;100.00
28008;BME280;15333;50.010;20.020;2023-02-12T07:19:22;100567.72;;;1.62;100.00
28008;BME280;15333;50.010;20.020;2023-02-12T07:22:23;100568.38;;;1.81;100.00
28008;BME280;15333;50.010;20.020;2023-02-12T07:25:24;100578.91;;;1.82;100.00
28008;BME280;15333;50.010;20.020;2023-02-12T07:28:25;100581.56;;;1.82;100.00
28008;BME280;15333;50.010;20.020;2023-02-12T07:31:27;100582.47;;;1.78;100.00
28008;BME280;15333;50.010;20.020;2023-02-12T07:34:28;100577.31;;;1.68;100.00
28008;BME280;15333;50.010;20.020;2023-02-12T07:37:29;100585.09;;;1.81;100.00
28008;BME280;15333;50.010;20.020;2023-02-12T07:40:30;100600.22;;;1.66;100.00
28008;BME280;15333;50.010;20.020;2023-02-12T07:43:31;100602.19;;;1.45;100.00
28008;BME280;15333;50.010;20.020;2023-02-12T07:46:34;100602.25;;;1.39;100.00
28008;BME280;15333;50.010;20.020;2023-02-12T07:49:36;100601.31;;;1.45;100.00
28008;BME280;15333;50.010;20.020;2023-02-12T07:52:37;100608.03;;;1.73;100.00
28008;BME280;15333;50.010;20.020;2023-02-12T07:55:38;100615.16;;;1.68;99.09
28008;BME280;15333;50.010;20.020;2023-02-12T07:58:40;100618.66;;;1.67;97.61
28008;BME280;15333;50.010;20.020;2023-02-12T08:01:48;100625.56;;;1.80;97.15
28008;BME280;15333;50.010;20.020;2023-02-12T08:04:49;100623.78;;;1.82;95.31
28008;BME280;15333;50.010;20.020;2023-02-12T08:07:50;100626.34;;;1.90;94.18
28008;BME280;15333;50.010;20.020;2023-02-12T08:10:54;100623.81;;;1.81;94.09
28008;BME280;15333;50.010;20.020;2023-02-12T08:13:56;100619.25;;;1.93;92.46
28008;BME280;15333;50.010;20.020;2023-02-12T08:16:57;100627.31;;;1.81;92.26
28008;BME280;15333;50.010;20.020;2023-02-12T08:19:58;100636.94;;;1.87;91.88
28008;BME280;15333;50.010;20.020;2023-02-12T08:22:59;100626.50;;;1.75;91.62
28008;BME280;15333;50.010;20.020;2023-02-12T08:26:08;100634.63;;;1.55;94.62
28008;BME280;15333;50.010;20.020;2023-02-12T08:29:13;100632.81;;;1.60;93.65
28008;BME280;15333;50.010;20.020;2023-02-12T08:32:14;100625.69;;;1.68;93.37
28008;BME280;15333;50.010;20.020;2023-02-12T08:35:16;100636.25;;;1.68;90.59
28008;BME280;15333;50.010;20.020;2023-02-12T08:38:17;100634.59;;;1.58;91.14
28008;BME280;15333;50.010;20.020;2023-02-12T08:41:23;100638.97;;;1.62;90.13
28008;BME280;15333;50.010;20.020;2023-02-12T08:44:25;100640.63;;;1.71;89.61
28008;BME280;15333;50.010;20.020;2023-02-12T08:47:26;100653.94;;;1.57;89.10
28008;BME280;15333;50.010;20.020;2023-02-12T08:50:27;100649.53;;;1.59;88.81
28008;BME280;15333;50.010;20.020;2023-02-12T08:53:27;100666.28;;;1.55;89.19
28008;BME280;15333;50.010;20.020;2023-02-12T08:56:30;100659.19;;;1.63;88.30
28008;BME280;15333;50.010;20.020;2023-02-12T08:59:32;100655.47;;;1.82;87.20
28008;BME280;15333;50.010;20.020;2023-02-12T09:02:33;100667.78;;;1.82;87.06
28008;BME280;15333;50.010;20.020;2023-02-12T09:05:37;100681.00;;;1.82;86.25
28008;BME280;15333;50.010;20.020;2023-02-12T09:08:39;100683.63;;;1.80;85.58
28008;BME280;15333;50.010;20.020;2023-02-12T09:11:40;100690.31;;;2.15;85.02
28008;BME280;15333;50.010;20.020;2023-02-12T09:14:41;100697.66;;;1.85;84.49
28008;BME280;15333;50.010;20.020;2023-02-12T09:17:42;100696.78;;;1.86;84.35
28008;BME280;15333;50.010;20.020;2023-02-12T09:20:43;100709.13;;;1.83;85.32
28008;BME280;15333;50.010;20.020;2023-02-12T09:23:45;100717.91;;;1.85;84.64
28008;BME280;15333;50.010;20.020;2023-02-12T09:26:47;100722.28;;;1.87;84.14
28008;BME280;15333;50.010;20.020;2023-02-12T09:29:47;100722.53;;;1.63;85.45
28008;BME280;15333;50.010;20.020;2023-02-12T09:32:49;100729.25;;;1.98;84.93
28008;BME280;15333;50.010;20.020;2023-02-12T09:35:49;100722.81;;;2.23;83.59
28008;BME280;15333;50.010;20.020;2023-02-12T09:38:51;100723.44;;;2.43;81.45
28008;BME280;15333;50.010;20.020;2023-02-12T09:45:02;100719.63;;;1.90;84.26
28008;BME280;15333;50.010;20.020;2023-02-12T09:51:49;100726.47;;;2.07;83.62
28008;BME280;15333;50.010;20.020;2023-02-12T09:54:53;100729.03;;;2.19;82.30
28008;BME280;15333;50.010;20.020;2023-02-12T09:57:55;100734.53;;;1.94;83.67
28008;BME280;15333;50.010;20.020;2023-02-12T10:00:56;100727.19;;;2.24;83.17
28008;BME280;15333;50.010;20.020;2023-02-12T10:03:58;100722.66;;;2.36;82.05
28008;BME280;15333;50.010;20.020;2023-02-12T10:07:05;100729.78;;;2.99;80.46
28008;BME280;15333;50.010;20.020;2023-02-12T10:10:24;100726.38;;;2.91;79.06
28008;BME280;15333;50.010;20.020;2023-02-12T10:17:53;100723.94;;;2.75;79.97
28008;BME280;15333;50.010;20.020;2023-02-12T10:24:23;100732.53;;;3.52;77.14
28008;BME280;15333;50.010;20.020;2023-02-12T10:27:42;100734.84;;;3.15;78.80
28008;BME280;15333;50.010;20.020;2023-02-12T10:30:58;100745.22;;;3.29;78.62
28008;BME280;15333;50.010;20.020;2023-02-12T10:34:11;100740.16;;;3.14;78.44
28008;BME280;15333;50.010;20.020;2023-02-12T10:37:37;100736.19;;;3.42;78.69
28008;BME280;15333;50.010;20.020;2023-02-12T10:40:43;100731.66;;;3.52;76.41
28008;BME280;15333;50.010;20.020;2023-02-12T10:43:44;100724.59;;;3.51;75.26
28008;BME280;15333;50.010;20.020;2023-02-12T10:46:45;100741.72;;;3.27;76.30
28008;BME280;15333;50.010;20.020;2023-02-12T10:50:00;100740.34;;;3.59;76.70
28008;BME280;15333;50.010;20.020;2023-02-12T10:53:01;100730.91;;;3.96;74.36
28008;BME280;15333;50.010;20.020;2023-02-12T10:56:18;100734.84;;;3.72;75.66
28008;BME280;15333;50.010;20.020;2023-02-12T10:59:23;100747.38;;;3.03;75.33
28008;BME280;15333;50.010;20.020;2023-02-12T11:02:28;100741.09;;;3.10;76.56
28008;BME280;15333;50.010;20.020;2023-02-12T11:05:30;100737.03;;;2.85;77.54
28008;BME280;15333;50.010;20.020;2023-02-12T11:08:35;100724.31;;;3.12;75.94
28008;BME280;15333;50.010;20.020;2023-02-12T11:11:37;100728.91;;;3.57;74.45
28008;BME280;15333;50.010;20.020;2023-02-12T11:14:38;100732.69;;;3.96;72.13
28008;BME280;15333;50.010;20.020;2023-02-12T11:17:42;100724.16;;;3.77;74.11
28008;BME280;15333;50.010;20.020;2023-02-12T11:20:52;100736.47;;;3.24;75.92
28008;BME280;15333;50.010;20.020;2023-02-12T11:23:54;100725.81;;;3.30;75.96
28008;BME280;15333;50.010;20.020;2023-02-12T11:27:12;100731.50;;;3.03;76.10
28008;BME280;15333;50.010;20.020;2023-02-12T11:33:21;100738.69;;;2.92;76.00
28008;BME280;15333;50.010;20.020;2023-02-12T11:36:24;100735.13;;;2.96;76.52
28008;BME280;15333;50.010;20.020;2023-02-12T11:39:37;100742.09;;;3.03;76.31
28008;BME280;15333;50.010;20.020;2023-02-12T11:42:39;100733.19;;;3.07;76.63
28008;BME280;15333;50.010;20.020;2023-02-12T11:45:47;100736.59;;;3.15;76.26
28008;BME280;15333;50.010;20.020;2023-02-12T11:48:53;100741.34;;;2.92;76.64
28008;BME280;15333;50.010;20.020;2023-02-12T11:51:56;100742.16;;;2.97;75.96
28008;BME280;15333;50.010;20.020;2023-02-12T11:55:06;100732.56;;;3.49;75.02
28008;BME280;15333;50.010;20.020;2023-02-12T11:58:20;100726.44;;;3.46;74.72
28008;BME280;15333;50.010;20.020;2023-02-12T12:01:26;100720.22;;;3.48;75.30
28008;BME280;15333;50.010;20.020;2023-02-12T12:04:32;100724.59;;;3.52;75.65
28008;BME280;15333;50.010;20.020;2023-02-12T12:07:36;100732.66;;;3.43;74.79
28008;BME280;15333;50.010;20.020;2023-02-12T12:10:45;100724.19;;;3.20;76.05
28008;BME280;15333;50.010;20.020;2023-02-12T12:14:41;100717.41;;;3.01;77.20
28008;BME280;15333;50.010;20.020;2023-02-12T12:17:50;100720.72;;;3.18;77.43
28008;BME280;15333;50.010;20.020;2023-02-12T12:21:24;100713.56;;;3.23;77.03
28008;BME280;15333;50.010;20.020;2023-02-12T12:24:42;100712.72;;;3.21;77.21
28008;BME280;15333;50.010;20.020;2023-02-12T12:31:16;100703.97;;;3.70;75.60
28008;BME280;15333;50.010;20.020;2023-02-12T12:34:21;100698.22;;;3.46;76.46
28008;BME280;15333;50.010;20.020;2023-02-12T12:37:40;100705.09;;;3.57;75.92
28008;BME280;15333;50.010;20.020;2023-02-12T12:40:52;100713.94;;;4.06;75.64
28008;BME280;15333;50.010;20.020;2023-02-12T12:44:20;100702.78;;;3.89;75.56
28008;BME280;15333;50.010;20.020;2023-02-12T12:48:47;100696.50;;;3.93;75.30
28008;BME280;15333;50.010;20.020;2023-02-12T12:54:50;100703.53;;;3.97;76.14
28008;BME280;15333;50.010;20.020;2023-02-12T12:58:20;100712.13;;;4.08;75.40
28008;BME280;15333;50.010;20.020;2023-02-12T13:01:42;100703.13;;;3.14;77.48
28008;BME280;15333;50.010;20.020;2023-02-12T13:15:42;100711.91;;;3.16;78.74
28008;BME280;15333;50.010;20.020;2023-02-12T13:22:17;100725.81;;;3.30;78.32
28008;BME280;15333;50.010;20.020;2023-02-12T13:25:34;100729.00;;;3.50;77.50
28008;BME280;15333;50.010;20.020;2023-02-12T13:29:06;100727.38;;;3.43;77.72
28008;BME280;15333;50.010;20.020;2023-02-12T13:32:31;100727.16;;;3.55;77.83
28008;BME280;15333;50.010;20.020;2023-02-12T13:35:40;100728.34;;;3.38;78.43
28008;BME280;15333;50.010;20.020;2023-02-12T13:39:14;100722.94;;;3.45;77.84
28008;BME280;15333;50.010;20.020;2023-02-12T13:55:24;100730.28;;;3.27;80.02
28008;BME280;15333;50.010;20.020;2023-02-12T14:01:42;100723.81;;;3.44;79.08
28008;BME280;15333;50.010;20.020;2023-02-12T14:04:46;100722.97;;;3.42;79.57
28008;BME280;15333;50.010;20.020;2023-02-12T14:08:00;100720.31;;;3.42;79.82
28008;BME280;15333;50.010;20.020;2023-02-12T14:11:16;100720.28;;;3.45;79.16
28008;BME280;15333;50.010;20.020;2023-02-12T14:14:28;100731.59;;;3.55;79.13
28008;BME280;15333;50.010;20.020;2023-02-12T14:20:34;100729.91;;;3.49;79.56
28008;BME280;15333;50.010;20.020;2023-02-12T14:23:36;100728.09;;;3.54;79.40
28008;BME280;15333;50.010;20.020;2023-02-12T14:26:37;100730.78;;;3.51;79.16
28008;BME280;15333;50.010;20.020;2023-02-12T14:29:38;100732.56;;;3.49;79.84
28008;BME280;15333;50.010;20.020;2023-02-12T14:36:17;100724.06;;;3.29;80.02
28008;BME280;15333;50.010;20.020;2023-02-12T14:45:34;100713.28;;;3.41;79.44
28008;BME280;15333;50.010;20.020;2023-02-12T14:48:48;100722.25;;;3.33;80.11
28008;BME280;15333;50.010;20.020;2023-02-12T14:51:56;100726.69;;;3.31;80.39
28008;BME280;15333;50.010;20.020;2023-02-12T14:58:03;100717.88;;;3.29;80.49
28008;BME280;15333;50.010;20.020;2023-02-12T15:01:05;100723.19;;;3.27;80.57
28008;BME280;15333;50.010;20.020;2023-02-12T15:04:16;100720.38;;;3.41;78.38
28008;BME280;15333;50.010;20.020;2023-02-12T15:07:26;100734.41;;;3.44;78.99
28008;BME280;15333;50.010;20.020;2023-02-12T15:10:33;100734.59;;;3.32;78.76
28008;BME280;15333;50.010;20.020;2023-02-12T15:13:55;100730.44;;;3.16;79.62
28008;BME280;15333;50.010;20.020;2023-02-12T15:17:06;100740.31;;;3.05;79.94
28008;BME280;15333;50.010;20.020;2023-02-12T15:20:21;100744.03;;;2.89;80.65
28008;BME280;15333;50.010;20.020;2023-02-12T15:29:47;100745.19;;;2.68;81.71
28008;BME280;15333;50.010;20.020;2023-02-12T15:32:50;100754.16;;;2.53;81.39
28008;BME280;15333;50.010;20.020;2023-02-12T15:35:51;100760.59;;;2.31;83.02
28008;BME280;15333;50.010;20.020;2023-02-12T15:39:04;100754.75;;;1.97;85.27
28008;BME280;15333;50.010;20.020;2023-02-12T15:42:26;100760.94;;;1.94;86.38
28008;BME280;15333;50.010;20.020;2023-02-12T15:45:30;100756.72;;;1.74;86.75
28008;BME280;15333;50.010;20.020;2023-02-12T15:48:33;100766.25;;;1.91;89.31
28008;BME280;15333;50.010;20.020;2023-02-12T15:51:37;100772.44;;;1.86;91.35
28008;BME280;15333;50.010;20.020;2023-02-12T15:54:43;100768.03;;;1.89;93.65
28008;BME280;15333;50.010;20.020;2023-02-12T15:57:53;100775.09;;;1.87;95.61
28008;BME280;15333;50.010;20.020;2023-02-12T16:01:03;100769.66;;;2.03;97.13
28008;BME280;15333;50.010;20.020;2023-02-12T16:04:06;100772.19;;;2.13;95.87
28008;BME280;15333;50.010;20.020;2023-02-12T16:07:09;100773.91;;;2.19;96.70
28008;BME280;15333;50.010;20.020;2023-02-12T16:10:17;100773.06;;;2.14;96.47
28008;BME280;15333;50.010;20.020;2023-02-12T16:13:25;100771.34;;;2.13;96.21
28008;BME280;15333;50.010;20.020;2023-02-12T16:20:19;100776.66;;;2.07;97.01
28008;BME280;15333;50.010;20.020;2023-02-12T16:23:21;100782.88;;;2.01;97.17
28008;BME280;15333;50.010;20.020;2023-02-12T16:26:25;100780.34;;;1.90;97.63
28008;BME280;15333;50.010;20.020;2023-02-12T16:29:29;100789.97;;;1.96;96.65
28008;BME280;15333;50.010;20.020;2023-02-12T16:32:40;100790.03;;;1.88;96.59
28008;BME280;15333;50.010;20.020;2023-02-12T16:35:42;100791.91;;;1.74;96.48
28008;BME280;15333;50.010;20.020;2023-02-12T16:41:55;100807.75;;;1.76;95.77
28008;BME280;15333;50.010;20.020;2023-02-12T16:44:56;100826.28;;;1.65;95.47
28008;BME280;15333;50.010;20.020;2023-02-12T16:48:07;100829.88;;;1.52;96.14
28008;BME280;15333;50.010;20.020;2023-02-12T16:51:38;100828.09;;;1.57;95.67
28008;BME280;15333;50.010;20.020;2023-02-12T16:54:40;100830.81;;;1.43;96.43
28008;BME280;15333;50.010;20.020;2023-02-12T16:57:41;100834.41;;;1.29;97.98
28008;BME280;15333;50.010;20.020;2023-02-12T17:00:42;100830.88;;;1.33;98.24
28008;BME280;15333;50.010;20.020;2023-02-12T17:03:43;100828.34;;;1.17;99.24
28008;BME280;15333;50.010;20.020;2023-02-12T17:06:47;100826.63;;;1.01;100.00
28008;BME280;15333;50.010;20.020;2023-02-12T17:09:48;100825.78;;;0.96;100.00
28008;BME280;15333;50.010;20.020;2023-02-12T17:12:51;100813.50;;;0.94;100.00
28008;BME280;15333;50.010;20.020;2023-02-12T17:15:57;100827.53;;;0.93;100.00
28008;BME280;15333;50.010;20.020;2023-02-12T17:19:01;100826.69;;;0.92;100.00
28008;BME280;15333;50.010;20.020;2023-02-12T17:22:02;100824.94;;;0.88;100.00
28008;BME280;15333;50.010;20.020;2023-02-12T17:25:05;100828.47;;;0.89;100.00
28008;BME280;15333;50.010;20.020;2023-02-12T17:28:06;100835.50;;;0.82;100.00
28008;BME280;15333;50.010;20.020;2023-02-12T17:31:08;100839.06;;;0.78;100.00
28008;BME280;15333;50.010;20.020;2023-02-12T17:34:09;100834.63;;;0.78;100.00
28008;BME280;15333;50.010;20.020;2023-02-12T17:37:11;100832.03;;;0.71;100.00
28008;BME280;15333;50.010;20.020;2023-02-12T17:40:13;100837.28;;;0.83;100.00
28008;BME280;15333;50.010;20.020;2023-02-12T17:43:14;100837.25;;;0.86;100.00
28008;BME280;15333;50.010;20.020;2023-02-12T17:46:21;100830.25;;;0.82;100.00
28008;BME280;15333;50.010;20.020;2023-02-12T17:49:23;100828.50;;;0.75;100.00
28008;BME280;15333;50.010;20.020;2023-02-12T17:52:24;100823.22;;;0.75;100.00
28008;BME280;15333;50.010;20.020;2023-02-12T17:55:25;100831.13;;;0.73;100.00
28008;BME280;15333;50.010;20.020;2023-02-12T17:58:26;100821.47;;;0.74;100.00
28008;BME280;15333;50.010;20.020;2023-02-12T18:01:27;100822.31;;;0.79;100.00
28008;BME280;15333;50.010;20.020;2023-02-12T18:04:30;100820.59;;;0.78;100.00
28008;BME280;15333;50.010;20.020;2023-02-12T18:07:34;100810.00;;;0.86;100.00